Time;durP1;ratioP1;P1;durP2;ratioP2;P2;SDS_P1;SDS_P2;PMS_P1;PMS_P2;Temp;Humidity;BMP_temperature;BMP_pressure;BME280_temperature;BME280_humidity;BME280_pressure;Samples;Min_cycle;Max_cycle;Signal;HPM_P1;HPM_P2
2023/09/17 00:02:14;;;;;;;10.90;10.60;;;17.00;99.90;;;;;;6184621;23;20192;-81
2023/09/17 00:04:41;;;;;;;10.77;10.48;;;16.90;99.90;;;;;;6188750;23;20195;-81
2023/09/17 00:07:10;;;;;;;11.05;10.75;;;16.90;99.90;;;;;;6184568;23;20204;-81
2023/09/17 00:09:38;;;;;;;10.80;10.50;;;16.70;99.90;;;;;;6181226;23;20199;-81
2023/09/17 00:12:06;;;;;;;11.00;10.70;;;16.70;99.90;;;;;;6176010;23;20196;-83
2023/09/17 00:14:33;;;;;;;11.00;10.70;;;16.70;99.90;;;;;;6185455;23;20192;-81
2023/09/17 00:17:00;;;;;;;11.02;10.73;;;16.70;99.90;;;;;;6185611;23;20208;-80
2023/09/17 00:19:27;;;;;;;11.07;10.77;;;16.70;99.90;;;;;;6179089;23;20226;-81
2023/09/17 00:21:54;;;;;;;10.80;10.50;;;16.70;99.90;;;;;;6175378;23;20284;-81
2023/09/17 00:24:23;;;;;;;10.90;10.60;;;16.70;99.90;;;;;;6175729;23;20245;-81
2023/09/17 00:26:50;;;;;;;10.82;10.52;;;16.70;99.90;;;;;;6175259;23;20219;-81
2023/09/17 00:29:17;;;;;;;10.68;10.38;;;16.70;99.90;;;;;;6175249;23;20204;-81
2023/09/17 00:31:44;;;;;;;10.75;10.45;;;16.80;99.90;;;;;;6173983;23;20208;-81
2023/09/17 00:34:11;;;;;;;10.57;10.27;;;16.70;99.90;;;;;;6176260;23;20215;-81
2023/09/17 00:36:38;;;;;;;10.35;10.05;;;16.70;99.90;;;;;;6176531;23;20196;-82
2023/09/17 00:39:06;;;;;;;10.70;10.40;;;16.70;99.90;;;;;;6176218;23;20246;-81
2023/09/17 00:41:35;;;;;;;10.40;10.10;;;16.70;99.90;;;;;;6175501;23;20200;-82
2023/09/17 00:44:02;;;;;;;10.43;10.13;;;16.70;99.90;;;;;;6183445;23;20212;-81
2023/09/17 00:46:31;;;;;;;10.50;10.20;;;16.70;99.90;;;;;;6182386;23;20204;-81
2023/09/17 00:48:59;;;;;;;10.50;10.20;;;16.70;99.90;;;;;;6186219;23;20263;-81
2023/09/17 00:51:26;;;;;;;10.55;10.25;;;16.60;99.90;;;;;;6184653;23;20211;-81
2023/09/17 00:53:56;;;;;;;10.50;10.20;;;16.60;99.90;;;;;;6178523;23;20280;-81
2023/09/17 00:56:24;;;;;;;10.60;10.30;;;16.60;99.90;;;;;;6176541;23;20249;-81
2023/09/17 00:58:53;;;;;;;10.70;10.40;;;16.60;99.90;;;;;;6176507;23;20220;-81
2023/09/17 01:01:20;;;;;;;10.82;10.52;;;16.60;99.90;;;;;;6175525;23;20199;-81
2023/09/17 01:03:47;;;;;;;10.55;10.25;;;16.60;99.90;;;;;;6175160;23;20196;-81
2023/09/17 01:06:14;;;;;;;10.75;10.45;;;16.50;99.90;;;;;;6175289;23;20219;-81
2023/09/17 01:08:42;;;;;;;10.90;10.60;;;16.50;99.90;;;;;;6176504;23;20259;-82
2023/09/17 01:11:11;;;;;;;10.88;10.57;;;16.50;99.90;;;;;;6175754;23;20203;-82
2023/09/17 01:13:40;;;;;;;10.77;10.48;;;16.50;99.90;;;;;;6176131;23;20189;-81
2023/09/17 01:16:09;;;;;;;10.70;10.40;;;16.50;99.90;;;;;;6176056;23;20255;-81
2023/09/17 01:18:38;;;;;;;10.70;10.40;;;16.40;99.90;;;;;;6176355;23;20240;-82
2023/09/17 01:21:15;;;;;;;10.70;10.40;;;16.40;99.90;;;;;;6176003;23;20232;-81
2023/09/17 01:23:49;;;;;;;10.60;10.30;;;16.40;99.90;;;;;;6175829;23;20194;-81
2023/09/17 01:26:26;;;;;;;10.80;10.50;;;16.30;99.90;;;;;;6175926;23;20196;-81
2023/09/17 01:28:55;;;;;;;10.73;10.43;;;16.30;99.90;;;;;;6176858;23;20231;-82
2023/09/17 01:31:24;;;;;;;10.68;10.38;;;16.30;99.90;;;;;;6175513;23;20200;-81
2023/09/17 01:33:53;;;;;;;10.52;10.23;;;16.30;99.90;;;;;;6176032;23;20213;-81
2023/09/17 01:36:27;;;;;;;10.52;10.23;;;16.30;99.90;;;;;;6175295;23;20231;-81
2023/09/17 01:39:04;;;;;;;10.70;10.40;;;16.30;99.90;;;;;;6175697;23;20218;-81
2023/09/17 01:41:35;;;;;;;10.65;10.35;;;16.30;99.90;;;;;;6175156;23;20195;-81
2023/09/17 01:44:06;;;;;;;10.50;10.20;;;16.30;99.90;;;;;;6175689;23;20192;-82
2023/09/17 01:46:34;;;;;;;10.43;10.13;;;16.30;99.90;;;;;;6176453;23;20214;-81
2023/09/17 07:47:24;;;;;;;10.98;10.68;;;20.10;99.90;;;;;;6166640;22;20207;-80
2023/09/17 07:49:51;;;;;;;11.10;10.80;;;20.20;99.90;;;;;;6205285;23;20194;-81
2023/09/17 07:52:18;;;;;;;11.30;10.90;;;20.30;99.90;;;;;;6204508;23;20214;-80
2023/09/17 07:54:45;;;;;;;11.00;10.70;;;20.40;99.90;;;;;;6204086;23;20212;-80
2023/09/17 07:57:13;;;;;;;10.90;10.60;;;20.50;99.90;;;;;;6203826;23;20234;-80
2023/09/17 07:59:40;;;;;;;11.00;10.70;;;20.60;99.90;;;;;;6204759;23;20480;-80
2023/09/17 08:02:07;;;;;;;11.02;10.73;;;20.70;99.90;;;;;;6205100;23;20207;-80
2023/09/17 08:04:36;;;;;;;10.90;10.60;;;20.80;99.90;;;;;;6205430;23;20199;-80
2023/09/17 08:07:04;;;;;;;11.02;10.73;;;21.00;99.90;;;;;;6205216;23;20244;-81
2023/09/17 08:09:31;;;;;;;10.77;10.48;;;21.20;99.90;;;;;;6204387;23;20220;-80
2023/09/17 08:11:59;;;;;;;10.70;10.40;;;21.30;99.90;;;;;;6205763;23;20211;-80
2023/09/17 08:14:26;;;;;;;10.90;10.60;;;21.50;99.90;;;;;;6205601;23;20211;-80
2023/09/17 08:16:53;;;;;;;10.60;10.30;;;21.50;99.90;;;;;;6204981;23;20254;-80
2023/09/17 08:19:20;;;;;;;10.60;10.30;;;21.60;99.90;;;;;;6202517;23;20200;-80
2023/09/17 08:21:49;;;;;;;10.52;10.23;;;21.70;99.90;;;;;;6197569;23;20204;-80
2023/09/17 08:24:17;;;;;;;11.00;10.70;;;21.80;99.90;;;;;;6199295;23;20260;-80
2023/09/17 08:26:44;;;;;;;10.68;10.38;;;22.10;99.90;;;;;;6198506;23;20322;-80
2023/09/17 08:29:11;;;;;;;10.70;10.40;;;22.40;99.90;;;;;;6199132;23;20290;-80
2023/09/17 08:31:38;;;;;;;10.30;10.00;;;22.50;99.90;;;;;;6198538;23;20267;-80
2023/09/17 08:34:05;;;;;;;10.38;10.07;;;22.70;99.90;;;;;;6200238;23;20654;-80
2023/09/17 08:36:33;;;;;;;10.50;10.20;;;22.80;99.90;;;;;;6205238;23;20204;-80
2023/09/17 08:39:03;;;;;;;10.43;10.13;;;22.90;99.90;;;;;;6204493;23;20196;-80
2023/09/17 08:41:30;;;;;;;10.60;10.30;;;23.00;99.90;;;;;;6203996;23;20203;-81
2023/09/17 08:43:58;;;;;;;10.60;10.30;;;23.10;99.90;;;;;;6203979;23;20211;-80
2023/09/17 08:46:25;;;;;;;10.98;10.68;;;23.20;99.90;;;;;;6204781;23;20203;-80
2023/09/17 08:48:52;;;;;;;10.88;10.57;;;23.20;99.90;;;;;;6202406;23;20242;-79
2023/09/17 08:51:20;;;;;;;10.70;10.40;;;23.30;99.90;;;;;;6198751;23;20204;-80
2023/09/17 08:53:58;;;;;;;10.70;10.40;;;23.30;99.90;;;;;;6199357;23;20203;-79
2023/09/17 08:56:27;;;;;;;10.68;10.38;;;23.30;99.90;;;;;;6198943;23;20195;-79
2023/09/17 08:59:01;;;;;;;10.52;10.23;;;23.20;99.90;;;;;;6200910;23;20204;-80
2023/09/17 09:01:29;;;;;;;10.25;9.95;;;23.20;99.90;;;;;;6200266;23;20207;-79
2023/09/17 09:03:57;;;;;;;10.23;9.93;;;23.40;99.90;;;;;;6198930;23;20278;-80
2023/09/17 09:06:25;;;;;;;10.18;9.88;;;23.60;99.90;;;;;;6198311;23;20235;-79
2023/09/17 09:08:53;;;;;;;10.43;10.13;;;23.90;99.90;;;;;;6198626;23;20289;-79
2023/09/17 09:11:20;;;;;;;10.13;9.82;;;24.20;99.90;;;;;;6197490;23;20211;-79
2023/09/17 09:13:51;;;;;;;10.20;9.90;;;24.40;99.90;;;;;;6200198;23;20278;-79
2023/09/17 09:16:19;;;;;;;10.07;9.77;;;24.60;99.90;;;;;;6201424;23;20188;-79
2023/09/17 09:18:46;;;;;;;10.48;10.18;;;24.80;99.90;;;;;;6203629;23;20211;-80
2023/09/17 09:21:14;;;;;;;10.20;9.90;;;25.00;99.90;;;;;;6203727;23;20196;-80
2023/09/17 09:23:41;;;;;;;10.20;9.90;;;25.10;99.90;;;;;;6214946;23;20196;-80
2023/09/17 09:26:08;;;;;;;10.38;10.07;;;25.20;99.90;;;;;;6215417;23;20227;-80
2023/09/17 09:28:36;;;;;;;10.23;9.93;;;25.50;99.90;;;;;;6214108;23;20199;-80
2023/09/17 09:31:05;;;;;;;10.00;9.70;;;25.60;99.90;;;;;;6215331;23;20208;-80
2023/09/17 09:33:32;;;;;;;10.10;9.80;;;25.70;99.90;;;;;;6213749;23;20192;-80
2023/09/17 09:36:00;;;;;;;10.15;9.85;;;25.80;99.90;;;;;;6214730;23;20202;-80
2023/09/17 09:38:29;;;;;;;10.05;9.75;;;25.90;99.90;;;;;;6214966;23;20226;-80
2023/09/17 09:40:56;;;;;;;10.23;9.93;;;26.00;99.90;;;;;;6214632;23;20175;-79
2023/09/17 09:43:31;;;;;;;10.25;9.95;;;26.20;99.90;;;;;;6214693;23;20199;-80
2023/09/17 09:46:04;;;;;;;10.60;10.30;;;26.30;99.90;;;;;;6215836;23;20246;-80
2023/09/17 09:48:32;;;;;;;10.50;10.20;;;26.30;99.90;;;;;;6215163;23;20227;-80
2023/09/17 09:50:59;;;;;;;10.70;10.40;;;26.30;99.90;;;;;;6212372;23;20203;-82
2023/09/17 09:53:26;;;;;;;10.50;10.20;;;26.50;99.90;;;;;;6210945;23;20227;-80
2023/09/17 09:55:54;;;;;;;10.60;10.30;;;26.60;99.90;;;;;;6205233;23;20227;-81
2023/09/17 09:58:21;;;;;;;10.68;10.38;;;26.80;99.90;;;;;;6204428;23;20204;-81
2023/09/17 10:00:48;;;;;;;10.85;10.55;;;27.00;99.90;;;;;;6204639;23;20231;-81
2023/09/17 10:03:19;;;;;;;10.80;10.50;;;27.00;99.90;;;;;;6204309;23;20214;-81
2023/09/17 10:05:48;;;;;;;10.70;10.40;;;27.00;99.90;;;;;;6200892;23;20270;-80
2023/09/17 10:08:18;;;;;;;10.63;10.32;;;27.20;99.90;;;;;;6199825;23;21024;-80
2023/09/17 10:10:46;;;;;;;10.60;10.30;;;27.20;99.90;;;;;;6203208;23;20259;-80
2023/09/17 10:13:13;;;;;;;10.50;10.20;;;27.00;99.90;;;;;;6204029;23;20199;-80
2023/09/17 10:15:42;;;;;;;10.48;10.18;;;27.00;99.90;;;;;;6203822;23;20202;-79
2023/09/17 10:18:12;;;;;;;10.50;10.20;;;26.90;99.90;;;;;;6200618;23;20216;-80
2023/09/17 10:20:42;;;;;;;10.70;10.40;;;27.00;99.90;;;;;;6203306;23;20202;-80
2023/09/17 10:23:14;;;;;;;10.50;10.20;;;27.20;99.90;;;;;;6202574;23;20263;-80
2023/09/17 10:25:42;;;;;;;10.63;10.32;;;27.40;99.90;;;;;;6203683;23;20230;-81
2023/09/17 10:28:11;;;;;;;10.63;10.32;;;27.60;99.90;;;;;;6202911;23;20246;-81
2023/09/17 10:30:40;;;;;;;10.77;10.48;;;28.00;99.90;;;;;;6202958;23;20259;-80
2023/09/17 10:33:08;;;;;;;10.65;10.35;;;28.40;99.90;;;;;;6203251;23;20207;-82
2023/09/17 10:35:37;;;;;;;10.65;10.35;;;28.70;99.90;;;;;;6203019;23;20200;-81
2023/09/17 10:38:09;;;;;;;10.70;10.40;;;28.80;99.90;;;;;;6204997;23;20183;-80
2023/09/17 10:40:38;;;;;;;10.70;10.40;;;28.70;99.90;;;;;;6207460;23;20283;-80
2023/09/17 10:43:08;;;;;;;10.70;10.40;;;28.60;99.90;;;;;;6205791;23;20250;-80
2023/09/17 10:45:37;;;;;;;10.70;10.40;;;28.40;99.90;;;;;;6204322;23;20222;-81
2023/09/17 10:48:05;;;;;;;10.60;10.30;;;28.60;99.90;;;;;;6202805;23;20204;-80
2023/09/17 10:50:36;;;;;;;10.73;10.43;;;28.70;99.90;;;;;;6202446;23;20195;-81
2023/09/17 10:53:04;;;;;;;10.60;10.30;;;28.90;99.90;;;;;;6202431;23;20192;-80
2023/09/17 10:55:40;;;;;;;10.77;10.48;;;29.10;99.90;;;;;;6202928;23;20199;-80
2023/09/17 10:58:15;;;;;;;10.60;10.30;;;29.20;99.90;;;;;;6202335;23;20286;-80
2023/09/17 11:00:43;;;;;;;10.55;10.25;;;29.10;99.90;;;;;;6202089;23;20254;-80
2023/09/17 11:03:15;;;;;;;10.60;10.30;;;29.10;99.90;;;;;;6202462;23;20206;-81
2023/09/17 11:05:43;;;;;;;10.38;10.07;;;29.30;99.90;;;;;;6203622;23;20214;-81
2023/09/17 11:08:11;;;;;;;10.50;10.20;;;29.30;99.90;;;;;;6202693;23;20204;-81
2023/09/17 11:10:42;;;;;;;10.35;10.05;;;29.40;99.90;;;;;;6204323;23;20224;-81
2023/09/17 11:13:12;;;;;;;10.50;10.20;;;29.50;99.90;;;;;;6206946;23;20195;-79
2023/09/17 11:15:40;;;;;;;10.82;10.52;;;29.50;99.90;;;;;;6209284;23;20191;-80
2023/09/17 11:18:08;;;;;;;10.55;10.25;;;29.60;99.90;;;;;;6206103;23;20266;-80
2023/09/17 11:20:38;;;;;;;10.43;10.13;;;29.50;99.90;;;;;;6203172;23;20192;-80
2023/09/17 11:23:05;;;;;;;10.40;10.10;;;29.40;99.90;;;;;;6203218;23;20231;-80
2023/09/17 11:25:39;;;;;;;10.40;10.10;;;29.50;99.90;;;;;;6203008;23;20210;-80
2023/09/17 11:28:15;;;;;;;10.48;10.18;;;29.40;99.90;;;;;;6203782;23;20294;-80
2023/09/17 11:31:02;;;;;;;10.50;10.20;;;29.30;99.90;;;;;;6203189;23;20191;-80
2023/09/17 11:33:30;;;;;;;10.48;10.18;;;29.50;99.90;;;;;;6202149;23;20195;-81
2023/09/17 11:36:01;;;;;;;10.65;10.35;;;29.80;99.90;;;;;;6203540;23;20218;-80
2023/09/17 11:38:29;;;;;;;10.48;10.18;;;30.10;99.90;;;;;;6203077;23;20206;-80
2023/09/17 11:41:08;;;;;;;10.63;10.32;;;30.10;99.90;;;;;;6203811;23;20208;-81
2023/09/17 11:43:40;;;;;;;10.52;10.23;;;30.00;99.90;;;;;;6204217;23;20210;-80
2023/09/17 11:46:09;;;;;;;10.40;10.10;;;30.00;99.90;;;;;;6204200;23;20203;-80
2023/09/17 11:48:38;;;;;;;10.32;10.02;;;30.20;99.90;;;;;;6203091;23;20246;-80
2023/09/17 11:51:24;;;;;;;10.48;10.18;;;30.30;99.90;;;;;;6200410;23;20210;-80
2023/09/17 11:54:00;;;;;;;10.43;10.13;;;30.30;99.90;;;;;;6199970;23;20198;-79
2023/09/17 11:56:29;;;;;;;10.50;10.20;;;30.40;99.90;;;;;;6199867;23;20222;-79
2023/09/17 11:59:08;;;;;;;10.38;10.07;;;30.40;99.90;;;;;;6201164;23;20282;-80
2023/09/17 12:01:38;;;;;;;10.70;10.40;;;30.60;99.90;;;;;;6200485;23;20193;-80
2023/09/17 12:04:08;;;;;;;10.65;10.35;;;30.80;99.90;;;;;;6201923;23;20247;-80
2023/09/17 12:06:38;;;;;;;10.50;10.20;;;31.10;99.90;;;;;;6203211;23;20198;-81
2023/09/17 12:10:00;;;;;;;10.50;10.20;;;31.30;99.90;;;;;;6210374;23;20213;-81
2023/09/17 12:12:28;;;;;;;10.75;10.45;;;31.50;99.90;;;;;;6213182;23;20199;-80
2023/09/17 12:14:57;;;;;;;10.40;10.10;;;31.70;99.90;;;;;;6204121;23;20192;-80
2023/09/17 12:17:24;;;;;;;10.30;10.00;;;31.70;99.90;;;;;;6202641;23;20223;-80
2023/09/17 12:23:52;;;;;;;10.50;10.20;;;31.60;99.90;;;;;;6200217;23;20555;-80
2023/09/17 12:27:29;;;;;;;10.38;10.07;;;32.00;99.90;;;;;;6203170;23;20195;-80
2023/09/17 12:29:58;;;;;;;10.63;10.32;;;32.40;99.90;;;;;;6206171;23;20202;-80
2023/09/17 12:32:27;;;;;;;10.50;10.20;;;32.80;99.90;;;;;;6202823;23;20240;-80
2023/09/17 12:34:56;;;;;;;10.30;10.00;;;32.90;99.90;;;;;;6202741;23;20283;-81
2023/09/17 12:37:25;;;;;;;10.60;10.30;;;32.80;99.90;;;;;;6203166;23;20255;-79
2023/09/17 12:39:53;;;;;;;10.40;10.10;;;32.80;99.90;;;;;;6202310;23;20188;-80
2023/09/17 12:42:21;;;;;;;10.38;10.07;;;32.80;99.90;;;;;;6202093;23;20192;-80
2023/09/17 12:44:48;;;;;;;10.35;10.05;;;32.50;99.90;;;;;;6203582;23;20203;-81
2023/09/17 12:47:18;;;;;;;10.35;10.05;;;32.30;99.90;;;;;;6203995;23;20671;-81
2023/09/17 12:49:46;;;;;;;10.20;9.90;;;32.10;99.90;;;;;;6202464;23;20286;-83
2023/09/17 12:52:14;;;;;;;10.35;10.05;;;31.90;99.90;;;;;;6203841;23;20216;-81
2023/09/17 12:54:41;;;;;;;10.20;9.90;;;31.90;99.90;;;;;;6203661;23;20351;-81
2023/09/17 12:57:08;;;;;;;10.30;10.00;;;31.80;99.90;;;;;;6203415;23;20191;-81
2023/09/17 12:59:38;;;;;;;10.25;9.95;;;31.90;99.90;;;;;;6203965;23;20200;-80
2023/09/17 13:02:07;;;;;;;10.35;10.05;;;32.00;99.90;;;;;;6203663;23;20214;-81
2023/09/17 13:04:38;;;;;;;10.52;10.23;;;31.80;99.90;;;;;;6204484;23;20195;-81
2023/09/17 13:07:14;;;;;;;10.40;10.10;;;31.60;99.90;;;;;;6204152;23;20246;-81
2023/09/17 13:09:41;;;;;;;10.60;10.30;;;31.30;99.90;;;;;;6204195;23;20221;-81
2023/09/17 13:12:09;;;;;;;10.40;10.10;;;31.10;99.90;;;;;;6203805;23;20251;-80
2023/09/17 13:14:37;;;;;;;10.60;10.30;;;30.90;99.90;;;;;;6207396;23;20203;-81
2023/09/17 13:17:05;;;;;;;10.60;10.30;;;30.70;99.90;;;;;;6203763;23;20204;-81
2023/09/17 13:19:32;;;;;;;10.63;10.32;;;30.60;99.90;;;;;;6204378;23;20203;-81
2023/09/17 13:22:01;;;;;;;10.73;10.43;;;30.50;99.90;;;;;;6208612;23;20397;-81
2023/09/17 13:24:28;;;;;;;10.70;10.40;;;30.50;99.90;;;;;;6203205;23;20203;-81
2023/09/17 13:27:00;;;;;;;10.52;10.23;;;30.40;99.90;;;;;;6196676;23;20203;-81
2023/09/17 13:29:36;;;;;;;10.60;10.30;;;30.20;99.90;;;;;;6197008;23;20204;-81
2023/09/17 13:32:05;;;;;;;10.50;10.20;;;30.20;99.90;;;;;;6198287;23;20223;-81
2023/09/17 13:34:32;;;;;;;10.60;10.30;;;30.20;99.90;;;;;;6200248;23;20219;-81
2023/09/17 13:37:01;;;;;;;10.48;10.18;;;30.10;99.90;;;;;;6199475;23;20216;-81
2023/09/17 13:39:28;;;;;;;10.70;10.40;;;30.10;99.90;;;;;;6199897;23;20219;-81
2023/09/17 13:41:56;;;;;;;10.38;10.07;;;30.10;99.90;;;;;;6200394;23;20200;-81
2023/09/17 13:44:23;;;;;;;10.35;10.05;;;29.90;99.90;;;;;;6201566;23;20298;-81
2023/09/17 13:46:52;;;;;;;10.43;10.13;;;29.80;99.90;;;;;;6201573;23;20192;-81
2023/09/17 19:50:11;;;;;;;10.05;9.75;;;23.10;99.90;;;;;;6194574;22;20203;-81
2023/09/17 19:52:38;;;;;;;10.00;9.70;;;23.00;99.90;;;;;;6208222;23;20196;-82
2023/09/17 19:55:08;;;;;;;10.10;9.80;;;23.00;99.90;;;;;;6216209;23;20202;-81
2023/09/17 19:57:36;;;;;;;10.40;10.10;;;22.90;99.90;;;;;;6216145;23;20192;-81
2023/09/17 20:00:04;;;;;;;10.32;10.02;;;22.90;99.90;;;;;;6218318;22;20203;-81
2023/09/17 20:02:32;;;;;;;10.00;9.70;;;22.80;99.90;;;;;;6216559;23;20191;-82
2023/09/17 20:04:59;;;;;;;9.77;9.48;;;22.70;99.90;;;;;;6201918;23;20191;-81
2023/09/17 20:07:31;;;;;;;10.18;9.88;;;22.70;99.90;;;;;;6201191;23;20203;-81
2023/09/17 20:09:58;;;;;;;10.23;9.93;;;22.70;99.90;;;;;;6201653;23;20242;-81
2023/09/17 20:12:25;;;;;;;10.23;9.93;;;22.70;99.90;;;;;;6201528;23;20206;-81
2023/09/17 20:14:53;;;;;;;10.50;10.20;;;22.60;99.90;;;;;;6202680;23;20211;-82
2023/09/17 20:17:20;;;;;;;10.45;10.15;;;22.60;99.90;;;;;;6215090;23;20203;-81
2023/09/17 20:19:47;;;;;;;10.30;10.00;;;22.60;99.90;;;;;;6207342;23;20192;-82
2023/09/17 20:22:14;;;;;;;10.50;10.20;;;22.50;99.90;;;;;;6206582;23;20223;-82
2023/09/17 20:24:44;;;;;;;10.30;10.00;;;22.50;99.90;;;;;;6207069;23;20206;-82
2023/09/17 20:27:11;;;;;;;10.30;10.00;;;22.50;99.90;;;;;;6204739;23;20196;-82
2023/09/17 20:29:39;;;;;;;10.55;10.25;;;22.50;99.90;;;;;;6204391;23;20206;-81
2023/09/17 20:32:07;;;;;;;10.32;10.02;;;22.40;99.90;;;;;;6205332;23;20207;-81
2023/09/17 20:34:34;;;;;;;10.60;10.30;;;22.40;99.90;;;;;;6206159;23;20200;-81
2023/09/17 20:37:02;;;;;;;10.38;10.07;;;22.30;99.90;;;;;;6205603;23;20203;-80
2023/09/17 20:39:30;;;;;;;10.50;10.20;;;22.30;99.90;;;;;;6205016;23;20222;-81
2023/09/17 20:41:58;;;;;;;10.55;10.25;;;22.30;99.90;;;;;;6204896;23;20192;-81
2023/09/17 20:44:27;;;;;;;10.60;10.30;;;22.20;99.90;;;;;;6205116;23;20195;-81
2023/09/17 20:46:54;;;;;;;10.55;10.25;;;22.20;99.90;;;;;;6206034;23;20255;-81
2023/09/17 20:49:21;;;;;;;10.70;10.40;;;22.10;99.90;;;;;;6205330;23;20208;-81
2023/09/17 20:51:49;;;;;;;10.55;10.25;;;22.10;99.90;;;;;;6206387;23;20203;-81
2023/09/17 20:54:17;;;;;;;10.70;10.40;;;22.00;99.90;;;;;;6206932;23;20231;-81
2023/09/17 20:56:47;;;;;;;10.77;10.48;;;22.00;99.90;;;;;;6206041;23;20187;-81
2023/09/17 20:59:15;;;;;;;10.90;10.60;;;22.00;99.90;;;;;;6205660;23;20261;-81
2023/09/17 21:01:42;;;;;;;10.65;10.35;;;21.90;99.90;;;;;;6205706;23;20203;-81
2023/09/17 21:04:09;;;;;;;10.60;10.30;;;21.90;99.90;;;;;;6205841;23;20223;-81
2023/09/17 21:06:37;;;;;;;10.60;10.30;;;21.80;99.90;;;;;;6206465;23;20199;-81
2023/09/17 21:09:05;;;;;;;10.90;10.60;;;21.80;99.90;;;;;;6205749;23;20216;-81
2023/09/17 21:11:32;;;;;;;10.77;10.48;;;21.70;99.90;;;;;;6205772;23;20243;-81
2023/09/17 21:14:00;;;;;;;10.85;10.55;;;21.70;99.90;;;;;;6209118;23;20199;-80
2023/09/17 21:16:29;;;;;;;10.90;10.60;;;21.70;99.90;;;;;;6211820;23;20196;-81
2023/09/17 21:18:56;;;;;;;10.60;10.30;;;21.60;99.90;;;;;;6212829;23;20251;-81
2023/09/17 21:21:23;;;;;;;10.60;10.30;;;21.60;99.90;;;;;;6211818;23;20203;-82
2023/09/17 21:23:50;;;;;;;10.73;10.43;;;21.50;99.90;;;;;;6211893;23;20188;-81
2023/09/17 21:26:18;;;;;;;10.73;10.43;;;21.50;99.90;;;;;;6212142;23;20203;-82
2023/09/17 21:28:45;;;;;;;10.68;10.38;;;21.50;99.90;;;;;;6210885;23;20195;-80
2023/09/17 21:31:12;;;;;;;10.50;10.20;;;21.40;99.90;;;;;;6207482;23;20196;-81
2023/09/17 21:33:41;;;;;;;10.70;10.40;;;21.40;99.90;;;;;;6206143;23;20195;-81
2023/09/17 21:36:08;;;;;;;10.77;10.48;;;21.30;99.90;;;;;;6204988;23;20191;-81
2023/09/17 21:38:35;;;;;;;11.07;10.77;;;21.20;99.90;;;;;;6209504;23;20207;-81
2023/09/17 21:41:02;;;;;;;11.00;10.70;;;21.20;99.90;;;;;;6206022;23;20195;-82
2023/09/17 21:43:30;;;;;;;11.00;10.70;;;21.20;99.90;;;;;;6206241;23;20199;-81
2023/09/17 21:45:57;;;;;;;11.18;10.88;;;21.10;99.90;;;;;;6207214;23;20199;-81
2023/09/17 21:48:24;;;;;;;10.77;10.48;;;21.10;99.90;;;;;;6208225;23;20196;-81
2023/09/17 21:50:52;;;;;;;10.90;10.60;;;21.00;99.90;;;;;;6206029;23;20220;-81
2023/09/17 21:53:25;;;;;;;10.90;10.60;;;21.00;99.90;;;;;;6206148;23;20195;-81
2023/09/17 21:55:52;;;;;;;10.68;10.38;;;20.90;99.90;;;;;;6205677;23;20184;-81
2023/09/17 21:58:19;;;;;;;10.68;10.38;;;20.90;99.90;;;;;;6205261;23;20206;-81
2023/09/17 22:00:47;;;;;;;10.90;10.60;;;20.80;99.90;;;;;;6205409;23;20207;-82
2023/09/17 22:03:14;;;;;;;10.93;10.63;;;20.70;99.90;;;;;;6205043;23;20226;-81
2023/09/17 22:05:43;;;;;;;11.02;10.73;;;20.70;99.90;;;;;;6205248;23;20196;-81
2023/09/17 22:08:11;;;;;;;11.00;10.70;;;20.70;99.90;;;;;;6204756;23;20230;-81
2023/09/17 22:10:39;;;;;;;11.10;10.80;;;20.60;99.90;;;;;;6205403;23;20286;-81
2023/09/17 22:13:07;;;;;;;11.23;10.88;;;20.60;99.90;;;;;;6204629;23;20246;-81
2023/09/17 22:15:35;;;;;;;11.07;10.77;;;20.50;99.90;;;;;;6204891;23;20195;-81
2023/09/17 22:18:03;;;;;;;11.50;11.10;;;20.50;99.90;;;;;;6204208;23;20232;-82
2023/09/17 22:20:30;;;;;;;11.43;11.02;;;20.40;99.90;;;;;;6205738;23;20199;-81
2023/09/17 22:22:57;;;;;;;11.35;10.95;;;20.30;99.90;;;;;;6203985;23;20199;-81
2023/09/17 22:25:26;;;;;;;11.50;11.10;;;20.30;99.90;;;;;;6204868;23;20203;-81
2023/09/17 22:27:53;;;;;;;11.35;10.95;;;20.20;99.90;;;;;;6204300;23;20212;-81
2023/09/17 22:30:20;;;;;;;11.50;11.10;;;20.10;99.90;;;;;;6205384;23;20218;-81
2023/09/17 22:32:48;;;;;;;11.35;10.98;;;20.10;99.90;;;;;;6204361;23;20200;-81
2023/09/17 22:35:15;;;;;;;11.40;11.00;;;20.10;99.90;;;;;;6205792;23;20199;-82
2023/09/17 22:37:42;;;;;;;11.40;11.00;;;20.10;99.90;;;;;;6204845;23;20220;-81
2023/09/17 22:40:10;;;;;;;11.25;10.93;;;20.10;99.90;;;;;;6205018;23;20230;-81
2023/09/17 22:42:39;;;;;;;11.60;11.20;;;20.10;99.90;;;;;;6204600;23;20203;-81
2023/09/17 22:45:07;;;;;;;11.40;11.00;;;20.10;99.90;;;;;;6205897;23;21073;-81
2023/09/17 22:47:35;;;;;;;11.15;10.85;;;20.00;99.90;;;;;;6204576;23;20196;-81
2023/09/17 22:50:03;;;;;;;11.13;10.82;;;20.00;99.90;;;;;;6205139;23;20207;-81
2023/09/17 22:52:30;;;;;;;11.65;11.25;;;20.00;99.90;;;;;;6204326;23;20195;-81
2023/09/17 22:54:58;;;;;;;11.70;11.30;;;20.00;99.90;;;;;;6204914;23;20199;-81
2023/09/17 22:57:25;;;;;;;11.50;11.10;;;20.00;99.90;;;;;;6204783;23;20206;-81
2023/09/17 22:59:53;;;;;;;11.50;11.10;;;19.90;99.90;;;;;;6204618;23;20236;-81
2023/09/17 23:02:20;;;;;;;11.40;11.00;;;19.90;99.90;;;;;;6204643;23;20195;-81
2023/09/17 23:04:47;;;;;;;11.30;10.90;;;19.80;99.90;;;;;;6204629;23;20202;-81
2023/09/17 23:07:14;;;;;;;11.23;10.90;;;19.80;99.90;;;;;;6205217;23;20227;-81
2023/09/17 23:09:41;;;;;;;11.32;10.93;;;19.80;99.90;;;;;;6204241;23;20224;-81
2023/09/17 23:12:09;;;;;;;11.20;10.90;;;19.70;99.90;;;;;;6204383;23;20231;-81
2023/09/17 23:14:39;;;;;;;11.40;11.00;;;19.70;99.90;;;;;;6205678;23;20205;-81
2023/09/17 23:17:07;;;;;;;11.32;10.93;;;19.60;99.90;;;;;;6204867;23;20203;-81
2023/09/17 23:19:35;;;;;;;11.43;11.02;;;19.60;99.90;;;;;;6204696;23;20234;-81
2023/09/17 23:22:05;;;;;;;11.13;10.77;;;19.60;99.90;;;;;;6208009;23;20192;-81
2023/09/17 23:24:32;;;;;;;11.65;11.25;;;19.50;99.90;;;;;;6210166;23;20204;-81
2023/09/17 23:26:59;;;;;;;11.48;11.07;;;19.50;99.90;;;;;;6207556;23;20230;-81
2023/09/17 23:29:28;;;;;;;11.52;11.13;;;19.40;99.90;;;;;;6205066;23;20247;-81
2023/09/17 23:31:55;;;;;;;11.10;10.80;;;19.30;99.90;;;;;;6206005;23;20203;-81
2023/09/17 23:34:24;;;;;;;11.52;11.13;;;19.30;99.90;;;;;;6205203;23;20259;-81
2023/09/17 23:36:51;;;;;;;11.35;10.95;;;19.30;99.90;;;;;;6205472;23;20270;-81
2023/09/17 23:39:18;;;;;;;11.05;10.75;;;19.20;99.90;;;;;;6204778;23;20219;-81
2023/09/17 23:41:45;;;;;;;11.07;10.77;;;19.20;99.90;;;;;;6205121;23;20191;-81
2023/09/17 23:44:12;;;;;;;11.02;10.73;;;19.20;99.90;;;;;;6204172;23;20192;-81
2023/09/17 23:46:39;;;;;;;11.30;10.90;;;19.20;99.90;;;;;;6204430;23;20207;-81
2023/09/17 23:49:06;;;;;;;11.30;10.90;;;19.10;99.90;;;;;;6204257;23;20207;-82
2023/09/17 23:51:35;;;;;;;11.40;11.00;;;19.10;99.90;;;;;;6204866;23;20191;-81
2023/09/17 23:54:02;;;;;;;11.40;11.00;;;19.10;99.90;;;;;;6204826;23;20203;-81
2023/09/17 23:56:29;;;;;;;11.68;11.27;;;19.10;99.90;;;;;;6203802;23;20203;-81
2023/09/17 23:58:56;;;;;;;11.13;10.80;;;19.00;99.90;;;;;;6204015;23;20227;-81
